sensor_id;sensor_type;location;lat;lon;timestamp;P1;durP1;ratioP1;P2;durP2;ratioP2
26536;SDS011;14204;51.262;5.488;2023-02-28T00:00:12;12.95;;;8.27;;
26536;SDS011;14204;51.262;5.488;2023-02-28T00:02:42;12.10;;;8.38;;
26536;SDS011;14204;51.262;5.488;2023-02-28T00:05:09;15.40;;;9.68;;
26536;SDS011;14204;51.262;5.488;2023-02-28T00:07:36;16.00;;;9.05;;
26536;SDS011;14204;51.262;5.488;2023-02-28T00:10:03;14.15;;;8.73;;
26536;SDS011;14204;51.262;5.488;2023-02-28T00:12:34;12.48;;;9.25;;
26536;SDS011;14204;51.262;5.488;2023-02-28T00:15:01;18.52;;;9.05;;
26536;SDS011;14204;51.262;5.488;2023-02-28T00:17:30;14.73;;;9.10;;
26536;SDS011;14204;51.262;5.488;2023-02-28T00:19:56;14.25;;;9.75;;
26536;SDS011;14204;51.262;5.488;2023-02-28T00:22:25;17.38;;;10.07;;
26536;SDS011;14204;51.262;5.488;2023-02-28T00:24:50;13.82;;;9.20;;
26536;SDS011;14204;51.262;5.488;2023-02-28T00:27:16;15.90;;;8.38;;
26536;SDS011;14204;51.262;5.488;2023-02-28T00:29:42;16.05;;;9.85;;
26536;SDS011;14204;51.262;5.488;2023-02-28T00:32:07;12.43;;;9.10;;
26536;SDS011;14204;51.262;5.488;2023-02-28T00:34:33;15.52;;;9.57;;
26536;SDS011;14204;51.262;5.488;2023-02-28T00:37:03;14.80;;;10.50;;
26536;SDS011;14204;51.262;5.488;2023-02-28T00:39:30;15.68;;;10.52;;
26536;SDS011;14204;51.262;5.488;2023-02-28T00:41:56;14.82;;;10.23;;
26536;SDS011;14204;51.262;5.488;2023-02-28T00:44:22;12.77;;;9.68;;
26536;SDS011;14204;51.262;5.488;2023-02-28T00:46:47;17.48;;;11.13;;
26536;SDS011;14204;51.262;5.488;2023-02-28T00:49:13;17.95;;;10.75;;
26536;SDS011;14204;51.262;5.488;2023-02-28T00:51:39;20.10;;;10.27;;
26536;SDS011;14204;51.262;5.488;2023-02-28T00:54:04;16.00;;;10.60;;
26536;SDS011;14204;51.262;5.488;2023-02-28T00:56:30;23.05;;;12.10;;
26536;SDS011;14204;51.262;5.488;2023-02-28T00:58:56;18.00;;;11.40;;
26536;SDS011;14204;51.262;5.488;2023-02-28T01:01:21;17.67;;;11.75;;
26536;SDS011;14204;51.262;5.488;2023-02-28T01:03:47;25.23;;;13.98;;
26536;SDS011;14204;51.262;5.488;2023-02-28T01:06:13;20.23;;;12.30;;
26536;SDS011;14204;51.262;5.488;2023-02-28T01:08:38;18.08;;;12.90;;
26536;SDS011;14204;51.262;5.488;2023-02-28T01:11:11;18.80;;;12.52;;
26536;SDS011;14204;51.262;5.488;2023-02-28T01:13:41;20.60;;;12.85;;
26536;SDS011;14204;51.262;5.488;2023-02-28T01:16:07;26.15;;;12.90;;
26536;SDS011;14204;51.262;5.488;2023-02-28T01:18:32;23.83;;;14.27;;
26536;SDS011;14204;51.262;5.488;2023-02-28T01:21:05;25.48;;;13.60;;
26536;SDS011;14204;51.262;5.488;2023-02-28T01:23:40;22.60;;;13.18;;
26536;SDS011;14204;51.262;5.488;2023-02-28T01:26:07;22.48;;;12.73;;
26536;SDS011;14204;51.262;5.488;2023-02-28T01:28:35;21.75;;;12.55;;
26536;SDS011;14204;51.262;5.488;2023-02-28T01:31:01;26.17;;;14.73;;
26536;SDS011;14204;51.262;5.488;2023-02-28T01:33:27;26.35;;;14.30;;
26536;SDS011;14204;51.262;5.488;2023-02-28T01:36:03;23.27;;;12.88;;
26536;SDS011;14204;51.262;5.488;2023-02-28T01:38:31;23.48;;;14.25;;
26536;SDS011;14204;51.262;5.488;2023-02-28T01:40:58;22.55;;;12.73;;
26536;SDS011;14204;51.262;5.488;2023-02-28T01:43:26;20.85;;;12.65;;
26536;SDS011;14204;51.262;5.488;2023-02-28T01:45:56;22.70;;;12.40;;
26536;SDS011;14204;51.262;5.488;2023-02-28T01:48:25;21.13;;;12.27;;
26536;SDS011;14204;51.262;5.488;2023-02-28T01:50:57;23.13;;;12.38;;
26536;SDS011;14204;51.262;5.488;2023-02-28T01:53:27;21.58;;;12.73;;
26536;SDS011;14204;51.262;5.488;2023-02-28T01:55:57;18.38;;;12.10;;
26536;SDS011;14204;51.262;5.488;2023-02-28T01:58:23;23.23;;;12.73;;
26536;SDS011;14204;51.262;5.488;2023-02-28T02:00:49;20.15;;;13.05;;
26536;SDS011;14204;51.262;5.488;2023-02-28T02:03:16;23.17;;;13.25;;
26536;SDS011;14204;51.262;5.488;2023-02-28T02:05:46;21.75;;;12.85;;
26536;SDS011;14204;51.262;5.488;2023-02-28T02:08:13;24.25;;;13.95;;
26536;SDS011;14204;51.262;5.488;2023-02-28T02:10:54;25.58;;;12.98;;
26536;SDS011;14204;51.262;5.488;2023-02-28T02:19:08;26.45;;;13.38;;
26536;SDS011;14204;51.262;5.488;2023-02-28T02:36:13;21.90;;;11.98;;
26536;SDS011;14204;51.262;5.488;2023-02-28T02:41:36;24.08;;;13.95;;
26536;SDS011;14204;51.262;5.488;2023-02-28T02:46:48;22.52;;;12.90;;
26536;SDS011;14204;51.262;5.488;2023-02-28T02:49:20;22.92;;;12.98;;
26536;SDS011;14204;51.262;5.488;2023-02-28T02:51:50;21.88;;;13.15;;
26536;SDS011;14204;51.262;5.488;2023-02-28T02:54:22;19.85;;;12.68;;
26536;SDS011;14204;51.262;5.488;2023-02-28T02:56:53;20.13;;;12.27;;
26536;SDS011;14204;51.262;5.488;2023-02-28T02:59:26;19.80;;;13.15;;
26536;SDS011;14204;51.262;5.488;2023-02-28T03:01:57;20.17;;;11.48;;
26536;SDS011;14204;51.262;5.488;2023-02-28T03:04:30;23.88;;;12.30;;
26536;SDS011;14204;51.262;5.488;2023-02-28T03:06:59;16.48;;;11.15;;
26536;SDS011;14204;51.262;5.488;2023-02-28T03:09:25;15.32;;;11.27;;
26536;SDS011;14204;51.262;5.488;2023-02-28T03:11:52;22.23;;;13.10;;
26536;SDS011;14204;51.262;5.488;2023-02-28T03:17:21;21.02;;;11.52;;
26536;SDS011;14204;51.262;5.488;2023-02-28T03:23:03;16.85;;;11.85;;
26536;SDS011;14204;51.262;5.488;2023-02-28T03:31:07;18.52;;;10.93;;
26536;SDS011;14204;51.262;5.488;2023-02-28T03:36:45;18.30;;;10.75;;
26536;SDS011;14204;51.262;5.488;2023-02-28T03:39:15;17.05;;;11.77;;
26536;SDS011;14204;51.262;5.488;2023-02-28T03:41:49;20.38;;;12.02;;
26536;SDS011;14204;51.262;5.488;2023-02-28T03:44:53;17.65;;;12.38;;
26536;SDS011;14204;51.262;5.488;2023-02-28T03:47:31;15.88;;;10.82;;
26536;SDS011;14204;51.262;5.488;2023-02-28T03:52:34;17.13;;;10.68;;
26536;SDS011;14204;51.262;5.488;2023-02-28T03:55:08;18.30;;;11.27;;
26536;SDS011;14204;51.262;5.488;2023-02-28T03:57:40;20.17;;;12.45;;
26536;SDS011;14204;51.262;5.488;2023-02-28T04:00:31;20.88;;;12.25;;
26536;SDS011;14204;51.262;5.488;2023-02-28T04:03:02;18.35;;;11.65;;
26536;SDS011;14204;51.262;5.488;2023-02-28T04:05:28;17.45;;;11.05;;
26536;SDS011;14204;51.262;5.488;2023-02-28T04:08:03;20.10;;;10.68;;
26536;SDS011;14204;51.262;5.488;2023-02-28T04:10:32;19.83;;;11.60;;
26536;SDS011;14204;51.262;5.488;2023-02-28T04:12:58;19.67;;;10.95;;
26536;SDS011;14204;51.262;5.488;2023-02-28T04:15:23;17.73;;;10.60;;
26536;SDS011;14204;51.262;5.488;2023-02-28T04:17:49;20.38;;;10.95;;
26536;SDS011;14204;51.262;5.488;2023-02-28T04:20:15;21.58;;;11.10;;
26536;SDS011;14204;51.262;5.488;2023-02-28T04:22:41;18.52;;;11.73;;
26536;SDS011;14204;51.262;5.488;2023-02-28T04:25:07;17.48;;;11.10;;
26536;SDS011;14204;51.262;5.488;2023-02-28T04:27:33;22.88;;;11.73;;
26536;SDS011;14204;51.262;5.488;2023-02-28T04:29:59;18.73;;;11.65;;
26536;SDS011;14204;51.262;5.488;2023-02-28T04:32:25;20.08;;;12.63;;
26536;SDS011;14204;51.262;5.488;2023-02-28T04:34:50;18.98;;;11.32;;
26536;SDS011;14204;51.262;5.488;2023-02-28T04:37:16;20.27;;;12.52;;
26536;SDS011;14204;51.262;5.488;2023-02-28T04:39:42;18.13;;;11.60;;
26536;SDS011;14204;51.262;5.488;2023-02-28T04:42:08;19.27;;;11.80;;
26536;SDS011;14204;51.262;5.488;2023-02-28T04:44:34;19.17;;;10.57;;
26536;SDS011;14204;51.262;5.488;2023-02-28T04:47:00;19.48;;;11.85;;
26536;SDS011;14204;51.262;5.488;2023-02-28T04:49:25;19.75;;;11.25;;
26536;SDS011;14204;51.262;5.488;2023-02-28T04:51:51;18.67;;;11.27;;
26536;SDS011;14204;51.262;5.488;2023-02-28T04:54:18;21.35;;;12.57;;
26536;SDS011;14204;51.262;5.488;2023-02-28T04:56:43;20.60;;;11.77;;
26536;SDS011;14204;51.262;5.488;2023-02-28T04:59:09;20.17;;;11.43;;
26536;SDS011;14204;51.262;5.488;2023-02-28T05:01:34;20.52;;;11.48;;
26536;SDS011;14204;51.262;5.488;2023-02-28T05:04:01;18.10;;;11.07;;
26536;SDS011;14204;51.262;5.488;2023-02-28T05:06:29;20.40;;;12.18;;
26536;SDS011;14204;51.262;5.488;2023-02-28T05:08:56;19.58;;;11.23;;
26536;SDS011;14204;51.262;5.488;2023-02-28T05:13:51;18.83;;;11.35;;
26536;SDS011;14204;51.262;5.488;2023-02-28T05:16:19;17.52;;;11.43;;
26536;SDS011;14204;51.262;5.488;2023-02-28T05:18:45;19.17;;;11.30;;
26536;SDS011;14204;51.262;5.488;2023-02-28T05:24:10;23.45;;;12.18;;
26536;SDS011;14204;51.262;5.488;2023-02-28T05:26:37;21.98;;;10.68;;
26536;SDS011;14204;51.262;5.488;2023-02-28T05:29:05;21.33;;;11.50;;
26536;SDS011;14204;51.262;5.488;2023-02-28T05:31:31;21.83;;;10.90;;
26536;SDS011;14204;51.262;5.488;2023-02-28T05:33:56;24.50;;;12.70;;
26536;SDS011;14204;51.262;5.488;2023-02-28T05:36:22;17.85;;;10.32;;
26536;SDS011;14204;51.262;5.488;2023-02-28T05:38:48;19.77;;;10.63;;
26536;SDS011;14204;51.262;5.488;2023-02-28T05:41:15;19.45;;;10.98;;
26536;SDS011;14204;51.262;5.488;2023-02-28T05:43:41;17.15;;;10.65;;
26536;SDS011;14204;51.262;5.488;2023-02-28T05:46:08;22.70;;;10.40;;
26536;SDS011;14204;51.262;5.488;2023-02-28T05:48:36;18.08;;;9.88;;
26536;SDS011;14204;51.262;5.488;2023-02-28T05:51:03;20.80;;;11.05;;
26536;SDS011;14204;51.262;5.488;2023-02-28T05:53:30;18.50;;;10.18;;
26536;SDS011;14204;51.262;5.488;2023-02-28T05:55:56;18.80;;;10.10;;
26536;SDS011;14204;51.262;5.488;2023-02-28T05:58:22;16.02;;;9.35;;
26536;SDS011;14204;51.262;5.488;2023-02-28T06:00:48;16.15;;;9.75;;
26536;SDS011;14204;51.262;5.488;2023-02-28T06:03:14;17.50;;;11.02;;
26536;SDS011;14204;51.262;5.488;2023-02-28T06:05:40;21.95;;;10.65;;
26536;SDS011;14204;51.262;5.488;2023-02-28T06:08:05;16.23;;;10.18;;
26536;SDS011;14204;51.262;5.488;2023-02-28T06:10:32;15.48;;;8.52;;
26536;SDS011;14204;51.262;5.488;2023-02-28T06:13:02;18.23;;;10.40;;
26536;SDS011;14204;51.262;5.488;2023-02-28T06:15:28;17.02;;;9.23;;
26536;SDS011;14204;51.262;5.488;2023-02-28T06:17:54;22.20;;;10.15;;
26536;SDS011;14204;51.262;5.488;2023-02-28T06:20:23;16.65;;;9.23;;
26536;SDS011;14204;51.262;5.488;2023-02-28T06:22:51;17.50;;;8.77;;
26536;SDS011;14204;51.262;5.488;2023-02-28T06:25:17;18.10;;;9.02;;
26536;SDS011;14204;51.262;5.488;2023-02-28T06:27:43;20.58;;;9.32;;
26536;SDS011;14204;51.262;5.488;2023-02-28T06:30:09;14.27;;;8.82;;
26536;SDS011;14204;51.262;5.488;2023-02-28T06:32:36;16.05;;;9.00;;
26536;SDS011;14204;51.262;5.488;2023-02-28T06:35:02;15.65;;;9.38;;
26536;SDS011;14204;51.262;5.488;2023-02-28T06:37:28;16.35;;;8.52;;
26536;SDS011;14204;51.262;5.488;2023-02-28T06:39:55;21.98;;;8.27;;
26536;SDS011;14204;51.262;5.488;2023-02-28T06:42:21;15.80;;;8.38;;
26536;SDS011;14204;51.262;5.488;2023-02-28T06:47:22;15.98;;;8.00;;
26536;SDS011;14204;51.262;5.488;2023-02-28T06:49:48;13.38;;;8.30;;
26536;SDS011;14204;51.262;5.488;2023-02-28T06:52:14;12.63;;;7.78;;
26536;SDS011;14204;51.262;5.488;2023-02-28T06:54:40;14.55;;;7.82;;
26536;SDS011;14204;51.262;5.488;2023-02-28T06:57:06;13.13;;;8.10;;
26536;SDS011;14204;51.262;5.488;2023-02-28T06:59:32;11.82;;;8.20;;
26536;SDS011;14204;51.262;5.488;2023-02-28T07:01:57;17.02;;;8.07;;
26536;SDS011;14204;51.262;5.488;2023-02-28T07:04:23;17.85;;;8.25;;
26536;SDS011;14204;51.262;5.488;2023-02-28T07:06:49;17.63;;;7.80;;
26536;SDS011;14204;51.262;5.488;2023-02-28T07:09:14;13.68;;;7.63;;
26536;SDS011;14204;51.262;5.488;2023-02-28T07:11:40;13.73;;;7.25;;
26536;SDS011;14204;51.262;5.488;2023-02-28T07:14:07;12.85;;;7.15;;
26536;SDS011;14204;51.262;5.488;2023-02-28T07:16:34;15.23;;;7.13;;
26536;SDS011;14204;51.262;5.488;2023-02-28T07:19:00;15.32;;;7.70;;
26536;SDS011;14204;51.262;5.488;2023-02-28T07:21:26;14.40;;;7.30;;
26536;SDS011;14204;51.262;5.488;2023-02-28T07:23:51;21.08;;;7.85;;
26536;SDS011;14204;51.262;5.488;2023-02-28T07:26:18;12.00;;;6.50;;
26536;SDS011;14204;51.262;5.488;2023-02-28T07:28:45;17.65;;;7.22;;
26536;SDS011;14204;51.262;5.488;2023-02-28T07:31:13;12.68;;;6.75;;
26536;SDS011;14204;51.262;5.488;2023-02-28T07:33:39;12.15;;;6.55;;
26536;SDS011;14204;51.262;5.488;2023-02-28T07:36:06;10.07;;;6.95;;
26536;SDS011;14204;51.262;5.488;2023-02-28T07:38:34;10.93;;;6.35;;
26536;SDS011;14204;51.262;5.488;2023-02-28T07:41:01;12.82;;;7.07;;
26536;SDS011;14204;51.262;5.488;2023-02-28T07:43:33;14.85;;;7.40;;
26536;SDS011;14204;51.262;5.488;2023-02-28T07:46:06;11.05;;;6.63;;
26536;SDS011;14204;51.262;5.488;2023-02-28T07:48:33;11.65;;;7.28;;
26536;SDS011;14204;51.262;5.488;2023-02-28T07:50:59;11.63;;;7.13;;
26536;SDS011;14204;51.262;5.488;2023-02-28T07:53:26;12.23;;;6.40;;
26536;SDS011;14204;51.262;5.488;2023-02-28T07:55:56;12.90;;;6.25;;
26536;SDS011;14204;51.262;5.488;2023-02-28T07:58:22;12.30;;;7.03;;
26536;SDS011;14204;51.262;5.488;2023-02-28T08:00:49;10.25;;;5.78;;
26536;SDS011;14204;51.262;5.488;2023-02-28T08:03:18;10.20;;;5.70;;
26536;SDS011;14204;51.262;5.488;2023-02-28T08:05:45;11.27;;;6.00;;
26536;SDS011;14204;51.262;5.488;2023-02-28T08:08:12;11.98;;;6.10;;
26536;SDS011;14204;51.262;5.488;2023-02-28T08:10:39;9.35;;;5.50;;
26536;SDS011;14204;51.262;5.488;2023-02-28T08:13:04;9.45;;;5.28;;
26536;SDS011;14204;51.262;5.488;2023-02-28T08:15:30;10.23;;;4.63;;
26536;SDS011;14204;51.262;5.488;2023-02-28T08:17:56;14.75;;;5.60;;
26536;SDS011;14204;51.262;5.488;2023-02-28T08:20:22;9.15;;;5.47;;
26536;SDS011;14204;51.262;5.488;2023-02-28T08:22:48;8.73;;;4.70;;
26536;SDS011;14204;51.262;5.488;2023-02-28T08:25:14;9.40;;;4.90;;
26536;SDS011;14204;51.262;5.488;2023-02-28T08:27:39;8.48;;;4.50;;
26536;SDS011;14204;51.262;5.488;2023-02-28T08:30:05;8.02;;;4.43;;
26536;SDS011;14204;51.262;5.488;2023-02-28T08:32:32;8.15;;;4.25;;
26536;SDS011;14204;51.262;5.488;2023-02-28T08:34:58;6.97;;;4.80;;
26536;SDS011;14204;51.262;5.488;2023-02-28T08:37:24;5.50;;;4.03;;
26536;SDS011;14204;51.262;5.488;2023-02-28T08:39:50;6.38;;;4.05;;
26536;SDS011;14204;51.262;5.488;2023-02-28T08:42:16;8.25;;;4.45;;
26536;SDS011;14204;51.262;5.488;2023-02-28T08:44:42;4.20;;;3.40;;
26536;SDS011;14204;51.262;5.488;2023-02-28T08:47:07;6.72;;;3.53;;
26536;SDS011;14204;51.262;5.488;2023-02-28T08:49:33;8.93;;;3.47;;
26536;SDS011;14204;51.262;5.488;2023-02-28T08:51:59;4.43;;;2.70;;
26536;SDS011;14204;51.262;5.488;2023-02-28T08:54:24;4.15;;;3.00;;
26536;SDS011;14204;51.262;5.488;2023-02-28T08:56:50;5.68;;;3.22;;
26536;SDS011;14204;51.262;5.488;2023-02-28T08:59:16;3.63;;;3.00;;
26536;SDS011;14204;51.262;5.488;2023-02-28T09:01:41;5.38;;;2.50;;
26536;SDS011;14204;51.262;5.488;2023-02-28T09:04:08;5.22;;;3.10;;
26536;SDS011;14204;51.262;5.488;2023-02-28T09:06:35;5.07;;;2.50;;
26536;SDS011;14204;51.262;5.488;2023-02-28T09:09:02;4.43;;;2.60;;
26536;SDS011;14204;51.262;5.488;2023-02-28T09:11:29;3.15;;;2.10;;
26536;SDS011;14204;51.262;5.488;2023-02-28T09:13:55;3.60;;;2.65;;
26536;SDS011;14204;51.262;5.488;2023-02-28T09:16:20;6.15;;;2.50;;
26536;SDS011;14204;51.262;5.488;2023-02-28T09:18:47;4.65;;;2.28;;
26536;SDS011;14204;51.262;5.488;2023-02-28T09:21:13;4.38;;;2.47;;
26536;SDS011;14204;51.262;5.488;2023-02-28T09:23:41;5.00;;;2.47;;
26536;SDS011;14204;51.262;5.488;2023-02-28T09:26:11;4.05;;;2.78;;
26536;SDS011;14204;51.262;5.488;2023-02-28T09:28:38;4.43;;;2.08;;
26536;SDS011;14204;51.262;5.488;2023-02-28T09:31:04;2.97;;;2.28;;
26536;SDS011;14204;51.262;5.488;2023-02-28T09:33:30;3.17;;;2.20;;
26536;SDS011;14204;51.262;5.488;2023-02-28T09:35:59;2.17;;;1.98;;
26536;SDS011;14204;51.262;5.488;2023-02-28T09:38:26;4.57;;;2.35;;
26536;SDS011;14204;51.262;5.488;2023-02-28T09:43:22;2.95;;;1.95;;
26536;SDS011;14204;51.262;5.488;2023-02-28T09:45:52;4.32;;;2.25;;
26536;SDS011;14204;51.262;5.488;2023-02-28T09:48:26;2.67;;;2.05;;
26536;SDS011;14204;51.262;5.488;2023-02-28T09:51:00;3.50;;;2.20;;
26536;SDS011;14204;51.262;5.488;2023-02-28T09:53:30;4.32;;;2.17;;
26536;SDS011;14204;51.262;5.488;2023-02-28T09:56:09;5.38;;;2.33;;
26536;SDS011;14204;51.262;5.488;2023-02-28T09:58:49;3.45;;;2.35;;
26536;SDS011;14204;51.262;5.488;2023-02-28T10:06:45;4.80;;;2.33;;
26536;SDS011;14204;51.262;5.488;2023-02-28T10:11:47;3.75;;;2.45;;
26536;SDS011;14204;51.262;5.488;2023-02-28T10:14:18;4.63;;;2.38;;
26536;SDS011;14204;51.262;5.488;2023-02-28T10:16:56;10.55;;;2.70;;
26536;SDS011;14204;51.262;5.488;2023-02-28T10:22:25;5.07;;;1.77;;
26536;SDS011;14204;51.262;5.488;2023-02-28T10:25:44;2.35;;;1.40;;
26536;SDS011;14204;51.262;5.488;2023-02-28T10:28:10;2.88;;;1.90;;
26536;SDS011;14204;51.262;5.488;2023-02-28T10:30:40;2.65;;;0.98;;
26536;SDS011;14204;51.262;5.488;2023-02-28T10:35:47;2.80;;;1.63;;
26536;SDS011;14204;51.262;5.488;2023-02-28T10:38:20;2.85;;;1.80;;
26536;SDS011;14204;51.262;5.488;2023-02-28T10:40:48;2.50;;;1.80;;
26536;SDS011;14204;51.262;5.488;2023-02-28T10:45:39;3.08;;;1.75;;
26536;SDS011;14204;51.262;5.488;2023-02-28T10:48:27;1.98;;;1.75;;
26536;SDS011;14204;51.262;5.488;2023-02-28T10:51:01;2.40;;;1.80;;
26536;SDS011;14204;51.262;5.488;2023-02-28T10:53:30;3.53;;;1.90;;
26536;SDS011;14204;51.262;5.488;2023-02-28T10:58:51;4.28;;;1.83;;
26536;SDS011;14204;51.262;5.488;2023-02-28T11:04:11;2.55;;;1.73;;
26536;SDS011;14204;51.262;5.488;2023-02-28T11:07:02;3.85;;;2.10;;
26536;SDS011;14204;51.262;5.488;2023-02-28T11:09:46;2.15;;;1.80;;
26536;SDS011;14204;51.262;5.488;2023-02-28T11:12:22;1.80;;;1.70;;
26536;SDS011;14204;51.262;5.488;2023-02-28T11:14:59;3.03;;;1.92;;
26536;SDS011;14204;51.262;5.488;2023-02-28T11:17:29;2.15;;;1.92;;
26536;SDS011;14204;51.262;5.488;2023-02-28T11:20:00;2.15;;;1.90;;
26536;SDS011;14204;51.262;5.488;2023-02-28T11:22:30;3.75;;;2.00;;
26536;SDS011;14204;51.262;5.488;2023-02-28T11:25:01;2.03;;;1.83;;
26536;SDS011;14204;51.262;5.488;2023-02-28T11:29:59;4.15;;;2.08;;
26536;SDS011;14204;51.262;5.488;2023-02-28T11:32:26;2.17;;;1.83;;
26536;SDS011;14204;51.262;5.488;2023-02-28T11:35:03;3.55;;;2.05;;
26536;SDS011;14204;51.262;5.488;2023-02-28T11:37:41;2.70;;;1.95;;
26536;SDS011;14204;51.262;5.488;2023-02-28T11:46:00;3.38;;;2.03;;
26536;SDS011;14204;51.262;5.488;2023-02-28T11:54:35;2.67;;;1.83;;
26536;SDS011;14204;51.262;5.488;2023-02-28T11:57:27;2.00;;;1.80;;
26536;SDS011;14204;51.262;5.488;2023-02-28T12:05:44;2.78;;;2.20;;
26536;SDS011;14204;51.262;5.488;2023-02-28T12:11:46;3.55;;;2.28;;
26536;SDS011;14204;51.262;5.488;2023-02-28T12:27:38;5.47;;;2.33;;
26536;SDS011;14204;51.262;5.488;2023-02-28T12:32:49;2.58;;;2.20;;
26536;SDS011;14204;51.262;5.488;2023-02-28T12:35:25;2.75;;;2.30;;
26536;SDS011;14204;51.262;5.488;2023-02-28T12:38:10;3.45;;;2.50;;
26536;SDS011;14204;51.262;5.488;2023-02-28T12:40:45;3.13;;;2.55;;
26536;SDS011;14204;51.262;5.488;2023-02-28T12:43:33;2.47;;;2.25;;
26536;SDS011;14204;51.262;5.488;2023-02-28T12:48:57;3.97;;;2.58;;
26536;SDS011;14204;51.262;5.488;2023-02-28T12:51:26;3.38;;;2.53;;
26536;SDS011;14204;51.262;5.488;2023-02-28T12:54:04;5.05;;;2.55;;
26536;SDS011;14204;51.262;5.488;2023-02-28T13:10:16;44.70;;;4.80;;
26536;SDS011;14204;51.262;5.488;2023-02-28T13:12:47;3.17;;;2.20;;
26536;SDS011;14204;51.262;5.488;2023-02-28T13:17:58;8.57;;;2.90;;
26536;SDS011;14204;51.262;5.488;2023-02-28T13:20:25;9.43;;;3.10;;
26536;SDS011;14204;51.262;5.488;2023-02-28T13:23:01;5.28;;;2.28;;
26536;SDS011;14204;51.262;5.488;2023-02-28T13:27:59;5.72;;;3.08;;
26536;SDS011;14204;51.262;5.488;2023-02-28T13:33:28;19.65;;;3.78;;
26536;SDS011;14204;51.262;5.488;2023-02-28T13:44:03;5.60;;;3.00;;
26536;SDS011;14204;51.262;5.488;2023-02-28T13:46:31;2.75;;;2.55;;
26536;SDS011;14204;51.262;5.488;2023-02-28T14:00:23;3.10;;;2.40;;
26536;SDS011;14204;51.262;5.488;2023-02-28T14:02:50;2.70;;;2.50;;
26536;SDS011;14204;51.262;5.488;2023-02-28T14:11:55;6.05;;;2.28;;
26536;SDS011;14204;51.262;5.488;2023-02-28T14:17:05;4.70;;;2.58;;
26536;SDS011;14204;51.262;5.488;2023-02-28T14:19:34;8.23;;;3.17;;
26536;SDS011;14204;51.262;5.488;2023-02-28T14:30:48;3.08;;;2.30;;
26536;SDS011;14204;51.262;5.488;2023-02-28T14:33:26;3.72;;;2.80;;
26536;SDS011;14204;51.262;5.488;2023-02-28T14:36:21;6.65;;;3.17;;
26536;SDS011;14204;51.262;5.488;2023-02-28T14:38:52;4.72;;;2.75;;
26536;SDS011;14204;51.262;5.488;2023-02-28T14:41:22;4.22;;;2.70;;
26536;SDS011;14204;51.262;5.488;2023-02-28T14:44:12;10.98;;;3.30;;
26536;SDS011;14204;51.262;5.488;2023-02-28T14:46:38;4.22;;;2.88;;
26536;SDS011;14204;51.262;5.488;2023-02-28T14:49:07;5.32;;;3.10;;
26536;SDS011;14204;51.262;5.488;2023-02-28T14:52:00;4.50;;;2.75;;
26536;SDS011;14204;51.262;5.488;2023-02-28T14:55:00;4.28;;;2.65;;
26536;SDS011;14204;51.262;5.488;2023-02-28T14:57:33;4.00;;;2.60;;
26536;SDS011;14204;51.262;5.488;2023-02-28T15:00:01;5.00;;;3.28;;
26536;SDS011;14204;51.262;5.488;2023-02-28T15:02:30;7.10;;;2.58;;
26536;SDS011;14204;51.262;5.488;2023-02-28T15:04:59;2.70;;;2.50;;
26536;SDS011;14204;51.262;5.488;2023-02-28T15:07:34;2.83;;;2.53;;
26536;SDS011;14204;51.262;5.488;2023-02-28T15:12:39;2.97;;;2.40;;
26536;SDS011;14204;51.262;5.488;2023-02-28T15:15:13;5.03;;;2.72;;
26536;SDS011;14204;51.262;5.488;2023-02-28T15:17:40;5.65;;;3.40;;
26536;SDS011;14204;51.262;5.488;2023-02-28T15:20:11;4.47;;;2.67;;
26536;SDS011;14204;51.262;5.488;2023-02-28T15:22:39;3.47;;;2.67;;
26536;SDS011;14204;51.262;5.488;2023-02-28T15:25:05;4.15;;;2.33;;
26536;SDS011;14204;51.262;5.488;2023-02-28T15:27:33;4.65;;;2.60;;
26536;SDS011;14204;51.262;5.488;2023-02-28T15:30:07;4.25;;;2.42;;
26536;SDS011;14204;51.262;5.488;2023-02-28T15:32:39;5.65;;;2.90;;
26536;SDS011;14204;51.262;5.488;2023-02-28T15:37:54;3.47;;;2.67;;
26536;SDS011;14204;51.262;5.488;2023-02-28T15:43:04;10.57;;;2.45;;
26536;SDS011;14204;51.262;5.488;2023-02-28T15:45:45;3.05;;;2.78;;
26536;SDS011;14204;51.262;5.488;2023-02-28T15:48:18;5.43;;;3.08;;
26536;SDS011;14204;51.262;5.488;2023-02-28T15:50:47;3.03;;;2.47;;
26536;SDS011;14204;51.262;5.488;2023-02-28T15:53:17;4.25;;;2.53;;
26536;SDS011;14204;51.262;5.488;2023-02-28T15:55:52;4.32;;;3.17;;
26536;SDS011;14204;51.262;5.488;2023-02-28T15:58:20;5.78;;;3.13;;
26536;SDS011;14204;51.262;5.488;2023-02-28T16:00:59;5.00;;;2.85;;
26536;SDS011;14204;51.262;5.488;2023-02-28T16:03:44;7.25;;;3.03;;
26536;SDS011;14204;51.262;5.488;2023-02-28T16:08:58;4.95;;;3.15;;
26536;SDS011;14204;51.262;5.488;2023-02-28T16:11:24;4.88;;;2.67;;
26536;SDS011;14204;51.262;5.488;2023-02-28T16:13:50;6.75;;;3.05;;
26536;SDS011;14204;51.262;5.488;2023-02-28T16:16:17;5.25;;;2.83;;
26536;SDS011;14204;51.262;5.488;2023-02-28T16:18:45;4.75;;;2.92;;
26536;SDS011;14204;51.262;5.488;2023-02-28T16:21:11;3.00;;;2.72;;
26536;SDS011;14204;51.262;5.488;2023-02-28T16:23:36;4.50;;;3.00;;
26536;SDS011;14204;51.262;5.488;2023-02-28T16:26:02;9.30;;;3.65;;
26536;SDS011;14204;51.262;5.488;2023-02-28T16:28:30;8.82;;;3.42;;
26536;SDS011;14204;51.262;5.488;2023-02-28T16:30:59;4.93;;;3.17;;
26536;SDS011;14204;51.262;5.488;2023-02-28T16:33:27;3.55;;;3.17;;
26536;SDS011;14204;51.262;5.488;2023-02-28T16:35:54;3.08;;;2.58;;
26536;SDS011;14204;51.262;5.488;2023-02-28T16:38:19;3.78;;;2.70;;
26536;SDS011;14204;51.262;5.488;2023-02-28T16:40:46;3.70;;;3.10;;
26536;SDS011;14204;51.262;5.488;2023-02-28T16:43:15;4.05;;;3.25;;
26536;SDS011;14204;51.262;5.488;2023-02-28T16:45:44;6.97;;;2.97;;
26536;SDS011;14204;51.262;5.488;2023-02-28T16:48:14;6.18;;;3.08;;
26536;SDS011;14204;51.262;5.488;2023-02-28T16:50:41;4.88;;;2.85;;
26536;SDS011;14204;51.262;5.488;2023-02-28T16:53:08;4.13;;;2.92;;
26536;SDS011;14204;51.262;5.488;2023-02-28T16:55:34;15.43;;;3.88;;
26536;SDS011;14204;51.262;5.488;2023-02-28T16:58:00;5.30;;;3.92;;
26536;SDS011;14204;51.262;5.488;2023-02-28T17:00:28;8.25;;;3.75;;
26536;SDS011;14204;51.262;5.488;2023-02-28T17:02:55;4.78;;;2.85;;
26536;SDS011;14204;51.262;5.488;2023-02-28T17:05:21;4.20;;;3.00;;
26536;SDS011;14204;51.262;5.488;2023-02-28T17:07:48;3.60;;;2.90;;
26536;SDS011;14204;51.262;5.488;2023-02-28T17:10:21;10.18;;;3.47;;
26536;SDS011;14204;51.262;5.488;2023-02-28T17:12:51;3.65;;;3.35;;
26536;SDS011;14204;51.262;5.488;2023-02-28T17:15:18;4.25;;;3.55;;
26536;SDS011;14204;51.262;5.488;2023-02-28T17:17:45;4.25;;;3.55;;
26536;SDS011;14204;51.262;5.488;2023-02-28T17:20:12;4.43;;;3.25;;
26536;SDS011;14204;51.262;5.488;2023-02-28T17:22:39;6.50;;;3.55;;
26536;SDS011;14204;51.262;5.488;2023-02-28T17:25:05;5.25;;;3.40;;
26536;SDS011;14204;51.262;5.488;2023-02-28T17:27:31;6.60;;;3.55;;
26536;SDS011;14204;51.262;5.488;2023-02-28T17:29:56;6.32;;;3.50;;
26536;SDS011;14204;51.262;5.488;2023-02-28T17:32:22;3.50;;;3.13;;
26536;SDS011;14204;51.262;5.488;2023-02-28T17:34:48;5.88;;;3.58;;
26536;SDS011;14204;51.262;5.488;2023-02-28T17:37:14;7.55;;;4.10;;
26536;SDS011;14204;51.262;5.488;2023-02-28T17:39:40;5.18;;;3.65;;
26536;SDS011;14204;51.262;5.488;2023-02-28T17:42:06;5.38;;;3.60;;
26536;SDS011;14204;51.262;5.488;2023-02-28T17:44:32;6.07;;;3.92;;
26536;SDS011;14204;51.262;5.488;2023-02-28T17:46:58;4.95;;;4.20;;
26536;SDS011;14204;51.262;5.488;2023-02-28T17:49:24;7.15;;;4.13;;
26536;SDS011;14204;51.262;5.488;2023-02-28T17:51:50;7.55;;;5.78;;
26536;SDS011;14204;51.262;5.488;2023-02-28T17:54:15;10.77;;;7.43;;